Time;durP1;ratioP1;P1;durP2;ratioP2;P2;SDS_P1;SDS_P2;PMS_P1;PMS_P2;Temp;Humidity;BMP_temperature;BMP_pressure;BME280_temperature;BME280_humidity;BME280_pressure;Samples;Min_cycle;Max_cycle;Signal;HPM_P1;HPM_P2
2022/11/14 00:02:17;;;;;;;71.30;31.08;;;2.20;99.90;;;0.75;100.00;97306.91;5092933;28;20410;-75
2022/11/14 00:04:45;;;;;;;65.07;30.35;;;2.20;99.90;;;0.71;100.00;97313.50;5092094;28;20888;-75
2022/11/14 00:07:11;;;;;;;70.00;30.67;;;2.10;99.90;;;0.68;100.00;97314.66;5092788;28;20398;-76
2022/11/14 00:09:39;;;;;;;68.40;31.58;;;2.10;99.90;;;0.64;100.00;97320.44;5092699;28;20406;-75
2022/11/14 00:12:05;;;;;;;76.95;33.17;;;2.10;99.90;;;0.61;100.00;97311.22;5092745;28;20428;-75
2022/11/14 00:14:31;;;;;;;71.13;31.50;;;2.10;99.90;;;0.62;100.00;97319.84;5073741;28;20406;-76
2022/11/14 00:16:57;;;;;;;79.70;32.95;;;2.00;99.90;;;0.57;100.00;97320.41;5092824;28;20452;-76
2022/11/14 00:19:24;;;;;;;81.80;32.95;;;2.00;99.90;;;0.58;100.00;97316.00;5092603;28;20398;-75
2022/11/14 00:21:52;;;;;;;81.10;34.53;;;2.00;99.90;;;0.57;100.00;97310.00;5092581;28;20493;-76
2022/11/14 00:24:18;;;;;;;79.95;34.85;;;2.00;99.90;;;0.56;100.00;97313.59;5091721;28;20420;-76
2022/11/14 00:26:43;;;;;;;88.68;35.90;;;2.00;99.90;;;0.55;100.00;97314.56;5092529;28;20454;-76
2022/11/14 00:29:10;;;;;;;72.68;33.13;;;2.00;99.90;;;0.53;100.00;97315.75;5092503;28;20405;-75
2022/11/14 00:31:36;;;;;;;82.80;33.08;;;1.90;99.90;;;0.50;100.00;97311.75;5092561;28;20397;-76
2022/11/14 00:34:02;;;;;;;70.53;31.60;;;1.90;99.90;;;0.48;100.00;97318.13;5091601;28;20478;-76
2022/11/14 00:36:29;;;;;;;85.53;35.50;;;1.90;99.90;;;0.48;100.00;97318.94;5092229;28;20895;-76
2022/11/14 00:38:55;;;;;;;77.15;34.22;;;1.90;99.90;;;0.46;100.00;97317.50;5092198;28;20401;-76
2022/11/14 00:41:21;;;;;;;73.20;33.43;;;1.90;99.90;;;0.43;100.00;97315.28;5092184;28;20556;-76
2022/11/14 00:43:47;;;;;;;70.65;31.65;;;1.90;99.90;;;0.43;100.00;97315.28;5091621;28;20438;-76
2022/11/14 00:46:13;;;;;;;74.90;33.30;;;1.80;99.90;;;0.42;100.00;97311.06;5092096;28;20516;-77
2022/11/14 00:48:39;;;;;;;68.82;30.95;;;1.80;99.90;;;0.40;100.00;97303.44;5092027;28;20501;-76
2022/11/14 00:51:05;;;;;;;65.35;31.58;;;1.80;99.90;;;0.39;100.00;97297.44;5092021;28;20406;-76
2022/11/14 00:53:33;;;;;;;78.13;34.03;;;1.80;99.90;;;0.39;100.00;97291.41;5091196;28;20432;-76
2022/11/14 00:55:59;;;;;;;86.72;36.08;;;1.80;99.90;;;0.41;100.00;97296.44;5091864;28;20401;-76
2022/11/14 00:58:25;;;;;;;74.70;33.00;;;1.80;99.90;;;0.36;100.00;97284.81;5091419;28;20451;-76
2022/11/14 01:00:51;;;;;;;75.67;32.60;;;1.80;99.90;;;0.33;100.00;97294.78;5092031;28;20924;-76
2022/11/14 01:03:18;;;;;;;80.60;34.47;;;1.80;99.90;;;0.32;100.00;97290.56;5090978;28;20463;-76
2022/11/14 01:05:47;;;;;;;69.65;31.00;;;1.70;99.90;;;0.29;100.00;97291.75;5091786;28;20398;-76
2022/11/14 01:08:16;;;;;;;68.30;31.15;;;1.70;99.90;;;0.27;100.00;97290.34;5091671;28;20409;-76
2022/11/14 01:10:46;;;;;;;76.15;34.00;;;1.70;99.90;;;0.26;100.00;97293.94;5091652;28;20398;-76
2022/11/14 01:13:14;;;;;;;71.72;31.25;;;1.70;99.90;;;0.21;100.00;97291.91;5090971;28;20386;-76
2022/11/14 01:15:41;;;;;;;73.22;31.02;;;1.70;99.90;;;0.21;100.00;97288.50;5091679;28;20404;-76
2022/11/14 01:18:09;;;;;;;89.00;36.15;;;1.60;99.90;;;0.21;100.00;97291.91;5090122;28;20420;-76
2022/11/14 01:20:38;;;;;;;75.90;33.08;;;1.70;99.90;;;0.21;100.00;97291.91;5091573;28;20426;-76
2022/11/14 01:23:03;;;;;;;74.97;34.50;;;1.60;99.90;;;0.24;100.00;97299.31;5090568;28;20923;-76
2022/11/14 01:25:32;;;;;;;75.63;33.35;;;1.60;99.90;;;0.35;100.00;97291.00;5091356;28;20401;-76
2022/11/14 01:27:59;;;;;;;86.70;36.67;;;1.70;99.90;;;0.50;100.00;97277.91;5091304;28;20396;-76
2022/11/14 01:30:25;;;;;;;77.57;33.17;;;1.90;99.90;;;0.66;100.00;97268.97;5073127;28;20812;-76
2022/11/14 01:32:51;;;;;;;80.50;34.42;;;2.00;99.90;;;0.81;100.00;97264.47;5090426;28;20393;-76
2022/11/14 01:35:17;;;;;;;82.93;33.67;;;2.10;99.90;;;0.95;100.00;97267.94;5091227;28;20484;-76
2022/11/14 01:37:43;;;;;;;70.45;30.90;;;2.30;99.90;;;1.05;100.00;97257.97;5091040;28;20402;-76
2022/11/14 01:40:10;;;;;;;81.87;32.83;;;2.40;99.90;;;1.14;100.00;97264.59;5091133;28;20476;-76
2022/11/14 01:42:36;;;;;;;75.47;30.58;;;2.50;99.90;;;1.21;100.00;97257.59;5090802;28;20411;-76
2022/11/14 01:45:50;;;;;;;69.95;29.77;;;2.50;99.90;;;1.29;100.00;97264.47;5072046;28;20972;-76
2022/11/14 01:48:20;;;;;;;77.57;31.35;;;2.60;99.90;;;1.35;100.00;97263.69;5091003;28;20403;-76
2022/11/14 01:50:49;;;;;;;82.95;32.90;;;2.60;99.90;;;1.38;100.00;97256.28;5090892;28;20422;-76
2022/11/14 01:53:15;;;;;;;72.20;30.38;;;2.70;99.90;;;1.44;100.00;97258.09;5090259;28;20485;-76
2022/11/14 01:55:41;;;;;;;69.15;29.63;;;2.80;99.90;;;1.50;100.00;97248.69;5090816;28;20405;-76
2022/11/14 01:58:07;;;;;;;69.50;28.73;;;2.80;99.90;;;1.57;100.00;97259.16;5090784;28;20497;-76
2022/11/14 02:00:33;;;;;;;78.10;32.90;;;2.80;99.90;;;1.61;100.00;97250.72;5090913;28;20398;-75
2022/11/14 02:03:00;;;;;;;81.45;31.92;;;2.90;99.90;;;1.64;100.00;97242.50;5089824;28;20412;-75
2022/11/14 02:05:26;;;;;;;78.05;30.42;;;3.00;99.90;;;1.69;100.00;97236.69;5090563;28;20386;-76
2022/11/14 02:10:25;;;;;;;72.00;29.53;;;3.10;99.90;;;1.78;100.00;97235.50;5087111;28;20503;-75
2022/11/14 02:12:52;;;;;;;75.20;30.33;;;3.10;99.90;;;1.81;100.00;97246.31;5088243;28;20402;-73
2022/11/14 02:15:18;;;;;;;71.82;29.92;;;3.10;99.90;;;1.86;100.00;97243.13;5090118;28;20394;-75
2022/11/14 02:17:44;;;;;;;71.63;28.73;;;3.10;99.90;;;1.89;100.00;97240.91;5089097;28;20434;-75
2022/11/14 02:20:27;;;;;;;68.85;27.88;;;3.20;99.90;;;1.94;100.00;97235.94;5090314;28;20394;-75
2022/11/14 02:22:53;;;;;;;89.85;33.63;;;3.20;99.90;;;1.97;100.00;97239.91;5089357;28;20413;-75
2022/11/14 02:25:19;;;;;;;83.45;32.30;;;3.20;99.90;;;2.02;100.00;97241.94;5090180;28;20869;-75
2022/11/14 02:27:45;;;;;;;83.78;31.42;;;3.30;99.90;;;2.06;100.00;97250.97;5090390;28;20454;-75
2022/11/14 02:30:17;;;;;;;86.13;32.55;;;3.30;99.90;;;2.11;100.00;97245.94;5090192;28;20394;-75
2022/11/14 02:32:42;;;;;;;73.50;30.17;;;3.40;99.90;;;2.18;100.00;97250.16;5089613;28;20473;-75
2022/11/14 02:35:08;;;;;;;76.65;31.13;;;3.40;99.90;;;2.21;100.00;97246.34;5089829;28;20481;-74
2022/11/14 02:37:36;;;;;;;80.38;31.45;;;3.50;99.90;;;2.27;100.00;97248.16;5090116;28;20402;-75
2022/11/14 02:40:03;;;;;;;86.47;33.05;;;3.50;99.90;;;2.29;100.00;97254.78;5089984;28;20402;-75
2022/11/14 02:42:29;;;;;;;116.17;39.67;;;3.50;99.90;;;2.34;100.00;97239.31;5090121;28;20422;-75
2022/11/14 02:44:55;;;;;;;120.55;42.42;;;3.60;99.90;;;2.37;100.00;97235.50;5088582;28;20406;-75
2022/11/14 02:47:23;;;;;;;89.47;34.83;;;3.60;99.90;;;2.40;100.00;97235.09;5089723;28;20467;-75
2022/11/14 02:49:49;;;;;;;117.35;40.42;;;3.60;99.90;;;2.36;100.00;97236.50;5089818;28;20398;-74
2022/11/14 02:52:15;;;;;;;102.00;37.13;;;3.60;99.90;;;2.41;100.00;97238.50;5089833;28;21132;-75
2022/11/14 02:54:42;;;;;;;102.97;36.90;;;3.60;99.90;;;2.39;100.00;97246.56;5088948;28;20402;-75
2022/11/14 02:57:08;;;;;;;107.70;36.88;;;3.60;99.90;;;2.40;100.00;97240.34;5089792;28;20844;-75
2022/11/14 02:59:34;;;;;;;107.25;34.95;;;3.70;99.90;;;2.41;100.00;97241.91;5089964;28;20595;-75
2022/11/14 03:02:00;;;;;;;103.07;36.67;;;3.60;99.90;;;2.42;100.00;97242.72;5089607;28;20832;-74
2022/11/14 03:04:26;;;;;;;92.53;34.10;;;3.70;99.90;;;2.41;100.00;97246.34;5088826;28;20485;-75
2022/11/14 03:06:52;;;;;;;102.97;35.38;;;3.60;99.90;;;2.38;100.00;97246.75;5089771;28;20401;-75
2022/11/14 03:09:18;;;;;;;87.95;32.28;;;3.60;99.90;;;2.38;100.00;97246.75;5089568;28;20409;-75
2022/11/14 03:11:45;;;;;;;100.63;34.63;;;3.60;99.90;;;2.39;100.00;97250.97;5089631;28;20832;-74
2022/11/14 03:14:11;;;;;;;90.88;33.25;;;3.60;99.90;;;2.37;100.00;97245.16;5088981;28;20402;-75
2022/11/14 03:16:37;;;;;;;84.88;30.92;;;3.60;99.90;;;2.35;100.00;97237.50;5089556;28;20406;-75
2022/11/14 03:19:03;;;;;;;83.00;29.67;;;3.60;99.90;;;2.34;100.00;97225.44;5090461;28;20489;-75
2022/11/14 03:21:29;;;;;;;68.40;27.23;;;3.60;99.90;;;2.35;100.00;97214.00;5089685;28;20394;-75
2022/11/14 03:23:55;;;;;;;81.22;30.73;;;3.60;99.90;;;2.31;100.00;97200.56;5092853;28;20892;-75
2022/11/14 03:26:21;;;;;;;79.70;31.33;;;3.60;99.90;;;2.25;100.00;97198.75;5093467;28;20412;-75
2022/11/14 03:28:48;;;;;;;83.88;31.85;;;3.50;99.90;;;2.18;100.00;97199.78;5093645;28;20402;-76
2022/11/14 03:31:14;;;;;;;87.40;31.35;;;3.50;99.90;;;2.07;100.00;97201.19;5093676;28;20401;-75
2022/11/14 03:33:40;;;;;;;82.88;30.50;;;3.40;99.90;;;1.97;100.00;97205.19;5092817;28;20405;-75
2022/11/14 03:36:07;;;;;;;86.40;31.60;;;3.30;99.90;;;1.86;100.00;97204.00;5093508;28;20398;-75
2022/11/14 03:38:34;;;;;;;80.28;30.27;;;3.20;99.90;;;1.77;100.00;97195.56;5093471;28;20522;-75
2022/11/14 03:41:01;;;;;;;89.33;32.63;;;3.10;99.90;;;1.68;100.00;97190.72;5093511;28;20512;-75
2022/11/14 03:43:31;;;;;;;70.80;31.70;;;3.00;99.90;;;1.81;100.00;97185.50;5092567;28;20501;-75
2022/11/14 03:45:59;;;;;;;74.43;31.83;;;3.00;99.90;;;1.76;100.00;97180.09;5093295;28;20393;-75
2022/11/14 03:48:26;;;;;;;78.03;32.95;;;3.00;99.90;;;1.84;100.00;97172.06;5092942;28;20398;-76
2022/11/14 03:50:52;;;;;;;90.35;34.72;;;3.10;99.90;;;1.82;100.00;97164.44;5093267;28;20733;-75
2022/11/14 03:53:17;;;;;;;71.90;32.10;;;3.10;99.90;;;1.78;100.00;97171.06;5092267;28;20429;-75
2022/11/14 03:55:44;;;;;;;74.53;31.00;;;3.00;99.90;;;1.73;100.00;97165.63;5093033;28;20422;-75
2022/11/14 03:58:09;;;;;;;85.95;34.97;;;3.00;99.90;;;1.75;100.00;97179.28;5093269;28;20717;-75
2022/11/14 04:00:35;;;;;;;78.40;33.05;;;3.00;99.90;;;1.83;100.00;97191.34;5092996;28;20455;-75
2022/11/14 04:03:03;;;;;;;76.80;32.17;;;3.00;99.90;;;1.79;100.00;97192.75;5092107;28;20888;-75
2022/11/14 04:05:30;;;;;;;84.72;34.92;;;3.10;99.90;;;1.77;100.00;97205.19;5092919;28;20394;-75
2022/11/14 04:07:55;;;;;;;66.53;29.70;;;3.10;99.90;;;1.88;100.00;97209.81;5092937;28;20398;-75
2022/11/14 04:10:21;;;;;;;86.28;34.40;;;3.10;99.90;;;1.80;100.00;97200.38;5092840;28;20478;-75
2022/11/14 04:12:48;;;;;;;72.50;31.95;;;3.10;99.90;;;1.85;100.00;97200.56;5092054;28;20405;-75
2022/11/14 04:15:14;;;;;;;64.88;28.77;;;3.10;99.90;;;1.85;100.00;97190.13;5092765;28;20398;-75
2022/11/14 04:17:40;;;;;;;73.45;31.00;;;3.10;99.90;;;1.75;100.00;97189.72;5092636;28;20458;-75
2022/11/14 04:20:09;;;;;;;72.38;31.45;;;3.00;99.90;;;1.76;100.00;97207.00;5092772;28;20469;-75
2022/11/14 04:22:35;;;;;;;73.65;31.98;;;3.00;99.90;;;1.70;100.00;97196.56;5092495;28;20463;-75
2022/11/14 04:25:01;;;;;;;79.73;31.87;;;3.00;99.90;;;1.66;100.00;97201.34;5091728;28;20434;-76
2022/11/14 04:27:27;;;;;;;86.55;33.50;;;2.90;99.90;;;1.67;100.00;97191.72;5092822;28;20459;-75
2022/11/14 04:29:53;;;;;;;87.55;33.60;;;2.90;99.90;;;1.65;100.00;97194.56;5092531;28;20405;-75
2022/11/14 04:32:19;;;;;;;71.33;30.57;;;2.90;99.90;;;1.62;100.00;97189.72;5092404;28;20504;-75
2022/11/14 04:34:44;;;;;;;66.28;28.60;;;2.90;99.90;;;1.59;100.00;97182.28;5090462;28;20841;-75
2022/11/14 04:37:12;;;;;;;67.27;29.23;;;2.90;99.90;;;1.63;100.00;97182.69;5092353;28;20413;-75
2022/11/14 04:39:38;;;;;;;67.07;28.13;;;2.90;99.90;;;1.59;100.00;97186.69;5092295;28;20414;-75
2022/11/14 04:42:04;;;;;;;65.57;28.00;;;2.90;99.90;;;1.60;100.00;97173.44;5092275;28;20740;-75
2022/11/14 04:44:29;;;;;;;63.90;29.48;;;2.90;99.90;;;1.74;100.00;97167.25;5087984;28;20922;-75
2022/11/14 04:46:56;;;;;;;67.13;29.37;;;3.00;99.90;;;1.81;100.00;97154.19;5091797;28;20493;-75
2022/11/14 04:49:22;;;;;;;63.35;26.83;;;3.00;99.90;;;1.78;100.00;97152.00;5091914;28;20443;-74
2022/11/14 04:51:48;;;;;;;69.75;28.50;;;3.00;99.90;;;1.77;100.00;97156.41;5090254;28;20394;-74
2022/11/14 04:54:15;;;;;;;64.18;28.27;;;3.00;99.90;;;1.79;100.00;97161.44;5105865;28;20402;-74
2022/11/14 04:56:41;;;;;;;61.60;28.40;;;3.10;99.90;;;1.86;100.00;97173.47;5091892;28;20775;-74
2022/11/14 04:59:07;;;;;;;64.77;27.93;;;3.10;99.90;;;1.84;100.00;97169.47;5091999;28;20398;-74
2022/11/14 05:01:33;;;;;;;53.28;26.15;;;3.10;99.90;;;1.88;100.00;97165.47;5092039;28;20390;-74
2022/11/14 05:03:59;;;;;;;57.28;26.60;;;3.10;99.90;;;1.89;100.00;97149.56;5090940;28;20429;-74
2022/11/14 05:06:25;;;;;;;58.15;27.23;;;3.20;99.90;;;1.89;100.00;97148.78;5091048;28;20429;-74
2022/11/14 05:08:50;;;;;;;53.17;25.83;;;3.10;99.90;;;1.89;100.00;97140.94;5091274;28;20498;-74
2022/11/14 05:11:19;;;;;;;52.20;25.48;;;3.10;99.90;;;1.78;100.00;97131.94;5091726;28;20402;-74
2022/11/14 05:13:46;;;;;;;56.80;26.15;;;3.10;99.90;;;1.72;100.00;97132.75;5090811;28;20451;-74
2022/11/14 05:16:12;;;;;;;50.78;25.58;;;3.00;99.90;;;1.81;100.00;97134.13;5091315;28;20405;-74
2022/11/14 05:18:39;;;;;;;56.28;26.67;;;3.00;99.90;;;1.79;100.00;97136.16;5091387;28;20414;-75
2022/11/14 05:21:05;;;;;;;59.17;26.85;;;3.10;99.90;;;1.76;100.00;97130.50;5091492;28;20402;-73
2022/11/14 05:23:31;;;;;;;65.82;28.13;;;3.00;99.90;;;1.74;100.00;97129.91;5089871;28;20978;-75
2022/11/14 05:26:01;;;;;;;58.25;26.83;;;3.00;99.90;;;1.83;100.00;97129.50;5084606;28;20774;-74
2022/11/14 05:28:29;;;;;;;53.27;25.70;;;3.10;99.90;;;1.85;100.00;97129.31;5075398;28;20408;-74
2022/11/14 05:31:01;;;;;;;51.95;24.65;;;3.10;99.90;;;1.83;100.00;97136.53;5091300;28;20483;-74
2022/11/14 05:33:27;;;;;;;55.65;24.67;;;3.10;99.90;;;1.77;100.00;97145.97;5090443;28;20390;-73
2022/11/14 05:35:52;;;;;;;59.38;25.25;;;3.10;99.90;;;1.71;100.00;97141.56;5091092;28;20409;-74
2022/11/14 05:38:18;;;;;;;57.35;25.92;;;3.00;99.90;;;1.74;100.00;97141.16;5091013;28;20744;-72
2022/11/14 05:40:44;;;;;;;54.10;25.13;;;3.00;99.90;;;1.81;100.00;97141.94;5090786;28;20463;-74
2022/11/14 05:43:10;;;;;;;53.33;24.70;;;3.00;99.90;;;1.83;100.00;97131.31;5088804;28;20420;-73
2022/11/14 05:45:37;;;;;;;52.95;24.25;;;3.10;99.90;;;1.74;100.00;97117.66;5097160;28;20425;-74
2022/11/14 05:48:04;;;;;;;52.55;23.92;;;3.10;99.90;;;1.70;100.00;97123.50;5090375;28;20417;-74
2022/11/14 05:50:30;;;;;;;49.90;24.35;;;3.00;99.90;;;1.78;100.00;97126.72;5088065;28;20459;-74
2022/11/14 05:52:56;;;;;;;47.75;22.98;;;3.00;99.90;;;1.80;100.00;97132.53;5089904;28;21184;-74
2022/11/14 05:55:22;;;;;;;45.90;21.58;;;3.00;99.90;;;1.83;100.00;97133.91;5090741;28;20401;-74
2022/11/14 05:57:48;;;;;;;47.30;22.87;;;3.10;99.90;;;1.82;100.00;97133.13;5090771;28;20402;-74
2022/11/14 06:00:15;;;;;;;55.05;23.75;;;3.10;99.90;;;1.80;100.00;97134.34;5090814;28;20492;-74
2022/11/14 06:02:44;;;;;;;52.90;23.50;;;3.10;99.90;;;1.78;100.00;97133.72;5090075;28;20464;-74
2022/11/14 06:05:11;;;;;;;50.87;22.73;;;3.00;99.90;;;1.78;100.00;97141.56;5090454;28;20500;-74
2022/11/14 06:07:37;;;;;;;53.05;23.48;;;3.10;99.90;;;1.84;100.00;97145.97;5090706;28;20401;-74
2022/11/14 06:10:04;;;;;;;48.70;22.65;;;3.10;99.90;;;1.90;100.00;97145.97;5086771;28;20783;-74
2022/11/14 06:12:31;;;;;;;59.38;26.27;;;3.10;99.90;;;1.97;100.00;97158.19;5078888;28;20414;-75
2022/11/14 06:14:57;;;;;;;54.13;24.73;;;3.20;99.90;;;2.10;100.00;97156.41;5085004;28;20783;-75
2022/11/14 06:17:23;;;;;;;50.60;23.53;;;3.30;99.90;;;2.17;100.00;97159.00;5090415;28;20397;-75
2022/11/14 06:19:50;;;;;;;53.65;23.02;;;3.40;99.90;;;2.19;100.00;97155.16;5090444;28;20444;-75
2022/11/14 06:22:16;;;;;;;45.35;22.08;;;3.40;99.90;;;2.18;100.00;97163.22;5089516;28;20414;-74
2022/11/14 06:24:42;;;;;;;48.22;21.50;;;3.40;99.90;;;2.25;100.00;97158.78;5088092;28;20918;-75
2022/11/14 06:27:07;;;;;;;48.63;21.40;;;3.50;99.90;;;2.23;100.00;97156.38;5090598;28;20645;-75
2022/11/14 06:29:33;;;;;;;48.25;21.13;;;3.50;99.90;;;2.29;100.00;97155.56;5090356;28;20406;-75
2022/11/14 06:31:59;;;;;;;56.17;23.05;;;3.50;99.90;;;2.38;100.00;97150.13;5088923;28;20406;-74
2022/11/14 06:34:26;;;;;;;49.23;22.27;;;3.60;99.90;;;2.45;100.00;97158.72;5088086;28;20409;-72
2022/11/14 06:36:53;;;;;;;48.10;21.75;;;3.60;99.90;;;2.48;100.00;97161.72;5090231;28;20398;-71
2022/11/14 06:39:19;;;;;;;50.97;21.10;;;3.70;99.90;;;2.55;100.00;97178.22;5090139;28;20413;-74
2022/11/14 06:41:45;;;;;;;43.00;20.35;;;3.70;99.90;;;2.69;100.00;97169.31;5090042;28;20456;-74
2022/11/14 06:44:10;;;;;;;41.92;19.88;;;3.80;99.90;;;2.79;100.00;97173.28;5089307;28;20406;-74
2022/11/14 06:46:36;;;;;;;35.00;18.73;;;4.00;99.90;;;2.93;100.00;97161.78;5089929;28;20410;-74
2022/11/14 06:49:02;;;;;;;45.40;19.13;;;4.10;99.90;;;2.87;100.00;97154.75;5088443;28;20422;-74
2022/11/14 06:51:28;;;;;;;37.25;18.55;;;4.10;99.90;;;2.91;100.00;97162.00;5089647;28;20394;-74
2022/11/14 06:53:56;;;;;;;41.70;18.80;;;4.00;99.90;;;2.93;100.00;97156.56;5089039;28;20954;-74
2022/11/14 06:56:22;;;;;;;32.80;16.10;;;4.10;99.90;;;2.95;100.00;97160.56;5081849;28;20415;-73
2022/11/14 06:58:49;;;;;;;35.30;16.63;;;4.10;99.90;;;2.95;100.00;97157.94;5084934;28;20413;-73
2022/11/14 07:01:17;;;;;;;33.10;16.33;;;4.10;99.90;;;2.95;100.00;97141.44;5081899;28;20453;-73
2022/11/14 07:03:44;;;;;;;36.23;17.10;;;4.10;99.90;;;2.98;100.00;97141.84;5077646;28;20471;-73
2022/11/14 07:06:12;;;;;;;35.53;16.67;;;4.10;99.90;;;3.03;100.00;97136.78;5076775;28;20453;-74
2022/11/14 07:08:38;;;;;;;36.10;16.95;;;4.20;99.90;;;3.08;100.00;97136.19;5087258;28;20878;-73
2022/11/14 07:11:09;;;;;;;33.72;15.65;;;4.20;99.90;;;3.07;100.00;97138.00;5080215;28;20412;-74
2022/11/14 07:13:36;;;;;;;36.72;16.15;;;4.20;99.90;;;3.05;100.00;97136.59;5088525;28;20398;-73
2022/11/14 07:16:03;;;;;;;39.70;18.65;;;4.20;99.90;;;3.22;100.00;97131.66;5083017;28;20918;-74
2022/11/14 07:18:30;;;;;;;32.88;15.57;;;4.30;99.90;;;3.19;100.00;97132.09;5074907;28;20534;-73
2022/11/14 07:20:58;;;;;;;35.10;16.13;;;4.30;99.90;;;3.17;100.00;97139.31;5077170;28;20489;-74
2022/11/14 07:23:23;;;;;;;37.42;15.77;;;4.30;99.90;;;3.11;100.00;97138.34;5078203;28;20414;-74
2022/11/14 07:25:49;;;;;;;43.72;18.13;;;4.30;99.90;;;3.03;100.00;97146.44;5078553;28;20734;-73
2022/11/14 07:28:17;;;;;;;42.92;17.92;;;4.30;99.90;;;2.99;100.00;97156.53;5086423;28;20431;-73
2022/11/14 07:30:43;;;;;;;45.25;20.60;;;4.20;99.90;;;2.97;100.00;97162.97;5081196;28;20390;-73
2022/11/14 07:33:10;;;;;;;43.15;19.27;;;4.20;99.90;;;2.99;100.00;97166.19;5077582;28;20408;-73
2022/11/14 07:35:38;;;;;;;43.47;18.80;;;4.20;99.90;;;3.08;100.00;97160.50;5089109;28;20408;-74
2022/11/14 07:38:04;;;;;;;54.42;19.73;;;4.30;99.90;;;2.97;100.00;97163.78;5087904;28;20933;-74
2022/11/14 07:40:30;;;;;;;49.08;19.25;;;4.20;99.90;;;2.90;100.00;97165.63;5089388;28;20886;-74
2022/11/14 07:42:58;;;;;;;39.27;17.87;;;4.10;99.90;;;2.86;100.00;97159.19;5088275;28;20412;-74
2022/11/14 07:45:25;;;;;;;38.60;17.20;;;4.10;99.90;;;2.86;100.00;97158.38;5089141;28;20402;-75
2022/11/14 07:47:54;;;;;;;39.45;17.50;;;4.10;99.90;;;2.80;100.00;97167.84;5088008;28;20397;-75
2022/11/14 07:50:20;;;;;;;37.15;17.10;;;4.00;99.90;;;2.79;100.00;97170.66;5081147;28;20403;-74
2022/11/14 07:52:50;;;;;;;42.65;17.48;;;4.00;99.90;;;2.82;100.00;97172.88;5068148;28;20681;-74
2022/11/14 07:55:16;;;;;;;44.30;17.67;;;4.00;99.90;;;2.87;100.00;97171.25;5068646;28;20890;-74
2022/11/14 07:57:42;;;;;;;47.15;20.63;;;4.00;99.90;;;3.13;100.00;97177.38;5084081;28;20435;-74
2022/11/14 08:00:10;;;;;;;46.43;18.13;;;4.30;99.90;;;3.10;100.00;97189.84;5088966;28;20521;-74
2022/11/14 08:02:37;;;;;;;35.88;16.02;;;4.30;99.90;;;3.19;100.00;97184.38;5088857;28;20414;-74
2022/11/14 08:05:04;;;;;;;42.72;17.38;;;4.30;99.90;;;3.24;100.00;97187.16;5088142;28;20401;-74
2022/11/14 08:07:29;;;;;;;38.60;15.85;;;4.40;99.90;;;3.34;100.00;97198.00;5088954;28;20406;-73
2022/11/14 08:09:55;;;;;;;37.30;16.23;;;4.50;99.90;;;3.47;100.00;97193.47;5091587;22;20801;-75
2022/11/14 08:12:21;;;;;;;33.40;15.70;;;4.60;99.90;;;3.73;100.00;97196.94;5071171;28;20788;-73
2022/11/14 08:14:47;;;;;;;32.08;14.70;;;4.80;99.90;;;3.77;100.00;97198.13;5070638;28;20426;-76
2022/11/14 08:17:13;;;;;;;29.53;12.33;;;4.80;99.90;;;3.91;100.00;97189.16;5068897;28;20405;-74
2022/11/14 08:19:40;;;;;;;24.55;10.75;;;5.00;99.90;;;4.12;100.00;97195.84;5040653;28;20443;-74
2022/11/14 08:22:06;;;;;;;19.42;9.60;;;5.10;99.90;;;4.19;100.00;97207.88;5043853;28;20928;-75
2022/11/14 08:24:32;;;;;;;15.02;7.90;;;5.30;99.90;;;4.38;100.00;97210.50;5051617;28;20405;-73
2022/11/14 08:26:59;;;;;;;15.30;7.07;;;5.40;99.90;;;4.38;100.00;97213.94;5052109;28;20727;-76
2022/11/14 08:29:25;;;;;;;13.18;6.90;;;5.50;99.90;;;4.47;100.00;97217.91;5052274;28;20411;-75
2022/11/14 08:31:50;;;;;;;37.77;8.33;;;5.50;99.90;;;4.46;100.00;97226.78;5051977;28;20405;-75
2022/11/14 08:34:16;;;;;;;17.77;7.47;;;5.50;99.90;;;4.62;100.00;97231.47;5051163;28;20494;-73
2022/11/14 08:36:44;;;;;;;13.93;6.75;;;5.70;99.90;;;4.64;100.00;97229.44;5036608;28;20423;-74
2022/11/14 08:39:10;;;;;;;19.98;7.75;;;5.70;99.90;;;4.67;100.00;97234.22;5031752;28;20451;-75
2022/11/14 08:41:35;;;;;;;17.57;6.63;;;5.70;99.90;;;4.70;100.00;97242.69;5031867;28;20403;-78
2022/11/14 08:44:01;;;;;;;15.77;6.47;;;5.80;99.90;;;4.80;100.00;97240.38;5040992;28;20512;-76
2022/11/14 08:46:27;;;;;;;11.27;5.43;;;5.80;99.90;;;4.89;100.00;97247.72;5051591;28;20423;-75
2022/11/14 08:48:53;;;;;;;15.63;5.57;;;5.90;99.90;;;5.00;100.00;97235.69;5051431;28;20433;-75
2022/11/14 08:51:19;;;;;;;16.90;5.27;;;6.10;99.90;;;5.00;100.00;97235.69;5051715;28;20872;-75
2022/11/14 08:53:46;;;;;;;15.32;5.30;;;6.10;99.90;;;5.09;100.00;97236.22;5050938;28;20539;-73
2022/11/14 08:56:12;;;;;;;10.23;4.30;;;6.10;99.90;;;5.04;100.00;97231.59;5051280;28;20448;-73
2022/11/14 08:58:38;;;;;;;14.45;4.95;;;6.10;99.90;;;5.03;100.00;97237.91;5051259;28;20443;-76
2022/11/14 09:01:06;;;;;;;13.93;4.80;;;6.10;99.90;;;5.06;100.00;97237.44;5048747;28;20513;-76
2022/11/14 09:03:32;;;;;;;12.45;4.70;;;6.20;99.90;;;5.12;100.00;97227.88;5047545;28;20421;-76
2022/11/14 09:05:59;;;;;;;10.93;4.70;;;6.20;99.90;;;5.13;100.00;97238.16;5051265;28;20413;-76
2022/11/14 09:08:25;;;;;;;9.45;4.45;;;6.20;99.90;;;5.18;100.00;97235.69;5051240;28;20996;-76
2022/11/14 09:10:53;;;;;;;11.00;4.20;;;6.20;99.90;;;5.24;100.00;97226.94;5051191;28;20429;-75
2022/11/14 09:13:19;;;;;;;6.65;3.95;;;6.30;99.90;;;5.25;100.00;97222.50;5050395;28;20524;-76
2022/11/14 09:15:45;;;;;;;8.57;4.15;;;6.30;99.90;;;5.28;100.00;97217.59;5051242;28;20883;-75
2022/11/14 09:18:11;;;;;;;8.00;3.67;;;6.30;99.90;;;5.37;100.00;97218.91;5051148;28;20405;-76
2022/11/14 09:20:38;;;;;;;6.82;3.53;;;6.40;99.90;;;5.39;100.00;97229.19;5050365;28;20728;-71
2022/11/14 09:23:04;;;;;;;8.25;3.78;;;6.40;99.90;;;5.36;100.00;97222.53;5031160;28;20775;-72
2022/11/14 09:25:30;;;;;;;8.80;4.20;;;6.40;99.90;;;5.40;100.00;97226.34;5050855;28;20899;-74
2022/11/14 09:28:02;;;;;;;8.23;3.35;;;6.40;99.90;;;5.43;100.00;97223.25;5033193;28;20901;-74
2022/11/14 09:30:27;;;;;;;7.30;3.30;;;6.50;99.90;;;5.48;100.00;97219.97;5032993;28;20445;-74
2022/11/14 09:32:59;;;;;;;6.00;3.20;;;6.50;99.90;;;5.49;100.00;97223.41;5050040;28;20397;-73
2022/11/14 09:35:25;;;;;;;8.98;3.50;;;6.50;99.90;;;5.47;100.00;97221.00;5050559;28;20405;-72
2022/11/14 09:37:59;;;;;;;7.40;3.30;;;6.50;99.90;;;5.49;100.00;97215.53;5050857;28;20425;-75
2022/11/14 09:40:25;;;;;;;7.25;3.42;;;6.50;99.90;;;5.51;100.00;97219.53;5032755;28;20830;-75
2022/11/14 09:43:12;;;;;;;7.60;3.53;;;6.60;99.90;;;5.55;100.00;97214.63;5045944;28;20425;-73
2022/11/14 09:45:46;;;;;;;8.18;3.30;;;6.60;99.90;;;5.65;100.00;97204.38;5046773;28;20396;-73
2022/11/14 09:48:17;;;;;;;5.85;3.22;;;6.60;99.90;;;5.66;100.00;97213.84;5050318;28;20953;-73
2022/11/14 09:50:47;;;;;;;6.80;3.30;;;6.70;99.90;;;5.79;100.00;97209.22;5050612;28;20409;-73
2022/11/14 09:53:25;;;;;;;5.65;3.60;;;6.80;99.90;;;5.84;100.00;97204.09;5032066;28;20508;-73
2022/11/14 09:55:51;;;;;;;7.73;3.37;;;6.90;99.90;;;5.87;100.00;97202.84;5050462;28;20917;-74
2022/11/14 09:58:20;;;;;;;8.43;3.60;;;6.90;99.90;;;5.99;100.00;97202.91;5050147;28;20910;-73
2022/11/14 10:00:53;;;;;;;8.73;3.33;;;7.00;99.90;;;6.06;100.00;97199.16;5050545;28;20429;-73
2022/11/14 10:03:33;;;;;;;9.20;3.58;;;7.00;99.90;;;6.16;100.00;97201.22;5060484;28;20498;-75
2022/11/14 10:06:24;;;;;;;10.70;4.28;;;7.10;99.90;;;6.32;100.00;97191.84;5069994;28;20392;-74
2022/11/14 10:09:18;;;;;;;10.23;3.88;;;7.20;99.90;;;6.48;100.00;97189.31;5058046;28;20417;-75
2022/11/14 10:11:52;;;;;;;9.53;4.47;;;7.40;99.90;;;6.67;100.00;97190.00;5048290;28;20460;-74
2022/11/14 10:14:52;;;;;;;7.95;3.90;;;7.60;99.90;;;7.15;100.00;97189.66;5048921;28;20485;-74
2022/11/14 10:17:40;;;;;;;5.53;2.92;;;8.00;99.90;;;7.62;100.00;97194.75;5049752;28;20433;-75
2022/11/14 10:20:16;;;;;;;3.42;2.67;;;8.40;99.90;;;7.91;100.00;97188.41;5044448;28;20623;-75